createdAt,value
2023-03-01T00:01:37.108Z,174.80
2023-03-01T00:04:05.698Z,178.50
2023-03-01T00:06:33.982Z,163.80
2023-03-01T00:09:01.939Z,183.00
2023-03-01T00:11:31.880Z,185.50
2023-03-01T00:14:03.040Z,216.70
2023-03-01T00:16:36.901Z,220.10
2023-03-01T00:19:04.738Z,194.80
2023-03-01T00:21:32.853Z,192.70
2023-03-01T00:24:01.190Z,189.00
2023-03-01T00:26:30.338Z,186.40
2023-03-01T00:29:00.036Z,175.90
2023-03-01T00:31:31.336Z,160.60
2023-03-01T00:34:02.593Z,154.30
2023-03-01T00:36:35.873Z,174.30
2023-03-01T00:39:07.243Z,178.50
2023-03-01T00:41:35.738Z,174.50
2023-03-01T00:44:04.334Z,189.10
2023-03-01T00:46:32.588Z,171.90
2023-03-01T00:49:03.178Z,181.70
2023-03-01T00:51:31.613Z,164.40
2023-03-01T00:54:02.841Z,159.60
2023-03-01T00:56:32.392Z,175.30
2023-03-01T00:59:01.280Z,171.20
2023-03-01T01:01:31.451Z,151.60
2023-03-01T01:04:02.417Z,167.90
2023-03-01T01:06:36.444Z,170.20
2023-03-01T01:09:07.758Z,168.40
2023-03-01T01:11:37.503Z,154.50
2023-03-01T01:14:05.400Z,173.70
2023-03-01T01:16:33.646Z,172.40
2023-03-01T01:19:01.644Z,155.20
2023-03-01T01:21:29.527Z,162.60
2023-03-01T01:23:58.103Z,173.10
2023-03-01T01:26:29.522Z,171.40
2023-03-01T01:28:58.609Z,176.80
2023-03-01T01:31:27.769Z,165.50
2023-03-01T01:33:56.451Z,157.10
2023-03-01T01:36:24.918Z,158.40
2023-03-01T01:38:53.172Z,145.20
2023-03-01T01:41:21.979Z,134.50
2023-03-01T01:44:10.826Z,150.00
2023-03-01T01:46:56.958Z,146.70
2023-03-01T01:49:42.699Z,155.90
2023-03-01T01:52:12.370Z,169.20
2023-03-01T01:54:43.052Z,157.30
2023-03-01T01:57:17.334Z,144.40
2023-03-01T01:59:51.961Z,147.80
2023-03-01T02:02:20.870Z,161.50
2023-03-01T02:04:50.801Z,161.20
2023-03-01T02:07:22.666Z,159.80
2023-03-01T02:09:53.870Z,160.00
2023-03-01T02:12:25.078Z,155.50
2023-03-01T02:14:52.914Z,156.10
2023-03-01T02:17:22.568Z,148.00
2023-03-01T02:20:24.600Z,133.70
2023-03-01T02:22:54.675Z,137.30
2023-03-01T02:25:45.206Z,143.40
2023-03-01T02:28:19.007Z,136.90
2023-03-01T02:33:39.100Z,118.00
2023-03-01T02:36:12.700Z,149.40
2023-03-01T02:38:42.184Z,158.20
2023-03-01T02:41:14.583Z,153.20
2023-03-01T02:43:43.116Z,132.70
2023-03-01T02:46:23.285Z,131.80
2023-03-01T02:48:54.177Z,122.40
2023-03-01T02:51:34.032Z,120.00
2023-03-01T02:54:29.941Z,127.30
2023-03-01T02:56:59.053Z,119.10
2023-03-01T02:59:32.161Z,124.40
2023-03-01T03:02:01.870Z,132.80
2023-03-01T03:04:29.665Z,133.10
2023-03-01T03:06:57.467Z,132.40
2023-03-01T03:09:26.020Z,135.80
2023-03-01T03:11:54.278Z,130.60
2023-03-01T03:14:22.486Z,138.10
2023-03-01T03:16:51.603Z,135.40
2023-03-01T03:19:20.478Z,137.30
2023-03-01T03:21:48.524Z,126.20
2023-03-01T03:24:16.464Z,130.30
2023-03-01T03:26:44.662Z,123.20
2023-03-01T03:29:13.044Z,117.30
2023-03-01T03:31:40.879Z,117.40
2023-03-01T03:34:08.686Z,95.70
2023-03-01T03:36:36.504Z,100.80
2023-03-01T03:39:04.842Z,86.70
2023-03-01T03:41:36.865Z,98.10
2023-03-01T03:44:05.468Z,85.90
2023-03-01T03:46:33.940Z,83.40
2023-03-01T03:49:01.854Z,78.60
2023-03-01T03:51:29.684Z,78.70
2023-03-01T03:53:58.036Z,88.20
2023-03-01T03:56:28.636Z,85.90
2023-03-01T03:58:56.704Z,76.00
2023-03-01T04:01:24.619Z,76.70
2023-03-01T04:03:55.522Z,95.90
2023-03-01T04:06:23.655Z,86.60
2023-03-01T04:08:52.163Z,88.60
2023-03-01T04:11:28.926Z,96.10
2023-03-01T04:13:59.987Z,96.10
2023-03-01T04:16:28.297Z,93.40
2023-03-01T04:18:56.477Z,94.80
2023-03-01T04:21:24.261Z,93.20
2023-03-01T04:23:53.822Z,88.40
2023-03-01T04:26:22.041Z,91.40
2023-03-01T04:28:51.502Z,90.50
2023-03-01T04:31:22.360Z,93.60
2023-03-01T04:33:53.476Z,90.30
2023-03-01T04:36:24.758Z,90.20
2023-03-01T04:38:53.092Z,88.20
2023-03-01T04:41:23.749Z,87.60
2023-03-01T04:43:51.804Z,83.50
2023-03-01T04:46:22.053Z,80.80
2023-03-01T04:48:50.321Z,89.20
2023-03-01T04:51:19.500Z,106.20
2023-03-01T04:53:47.439Z,104.10
2023-03-01T04:56:16.986Z,111.10
2023-03-01T04:58:46.372Z,117.70
2023-03-01T05:01:19.964Z,114.60
2023-03-01T05:06:20.871Z,94.00
2023-03-01T05:08:48.978Z,92.40
2023-03-01T05:11:17.211Z,106.50
2023-03-01T05:13:45.144Z,115.90
2023-03-01T05:16:13.249Z,116.20
2023-03-01T05:18:41.782Z,125.80
2023-03-01T05:21:12.651Z,119.30
2023-03-01T05:23:40.572Z,135.70
2023-03-01T05:26:25.931Z,127.20
2023-03-01T05:29:00.604Z,117.60
2023-03-01T05:31:29.486Z,120.10
2023-03-01T05:33:57.497Z,125.30
2023-03-01T05:36:25.380Z,122.10
2023-03-01T05:38:53.116Z,128.80
2023-03-01T05:41:20.937Z,122.50
2023-03-01T05:43:49.189Z,127.70
2023-03-01T05:46:17.544Z,120.40
2023-03-01T05:48:45.983Z,116.70
2023-03-01T05:51:13.763Z,111.90
2023-03-01T05:53:41.517Z,112.60
2023-03-01T05:56:09.392Z,119.20
2023-03-01T05:58:37.252Z,122.10
2023-03-01T06:01:05.741Z,119.10
2023-03-01T06:03:34.023Z,114.80
2023-03-01T06:06:01.877Z,107.60
2023-03-01T06:08:29.686Z,113.90
2023-03-01T06:10:57.496Z,107.50
2023-03-01T06:13:25.815Z,115.70
2023-03-01T06:15:54.191Z,114.10
2023-03-01T06:18:22.681Z,100.50
2023-03-01T06:20:55.405Z,106.40
2023-03-01T06:23:24.339Z,96.80
2023-03-01T06:25:52.271Z,95.20
2023-03-01T06:28:20.213Z,98.40
2023-03-01T06:30:48.559Z,92.10
2023-03-01T06:33:17.089Z,104.10
2023-03-01T06:35:44.919Z,97.70
2023-03-01T06:38:16.110Z,92.00
2023-03-01T06:40:43.955Z,97.60
2023-03-01T06:43:11.886Z,92.50
2023-03-01T06:45:40.831Z,104.80
2023-03-01T06:48:08.812Z,110.80
2023-03-01T06:50:37.253Z,108.60
2023-03-01T06:53:05.303Z,108.10
2023-03-01T06:55:33.651Z,108.40
2023-03-01T06:58:04.305Z,104.70
2023-03-01T07:00:33.045Z,126.10
2023-03-01T07:03:03.178Z,129.10
2023-03-01T07:05:31.894Z,119.10
2023-03-01T07:07:59.728Z,116.60
2023-03-01T07:10:27.602Z,117.90
2023-03-01T07:12:57.975Z,105.70
2023-03-01T07:15:27.886Z,115.70
2023-03-01T07:17:56.887Z,103.60
2023-03-01T07:20:26.676Z,106.00
2023-03-01T07:22:55.986Z,92.50
2023-03-01T07:25:24.399Z,99.50
2023-03-01T07:27:53.671Z,104.30
2023-03-01T07:30:22.807Z,97.10
2023-03-01T07:32:50.746Z,98.30
2023-03-01T07:35:19.202Z,96.30
2023-03-01T07:37:46.986Z,94.60
2023-03-01T07:40:15.401Z,90.60
2023-03-01T07:42:43.640Z,84.50
2023-03-01T07:45:12.570Z,92.10
2023-03-01T07:47:40.608Z,90.40
2023-03-01T07:50:09.627Z,85.90
2023-03-01T07:52:37.454Z,85.50
2023-03-01T07:55:06.922Z,85.10
2023-03-01T07:57:35.576Z,80.70
2023-03-01T08:00:03.999Z,90.40
2023-03-01T08:02:32.232Z,84.90
2023-03-01T08:05:00.388Z,79.90
2023-03-01T08:07:28.852Z,72.10
2023-03-01T08:09:57.175Z,77.80
2023-03-01T08:12:25.428Z,72.80
2023-03-01T08:14:53.280Z,73.30
2023-03-01T08:17:21.138Z,59.70
2023-03-01T08:19:49.199Z,66.10
2023-03-01T08:22:18.038Z,63.10
2023-03-01T08:24:45.947Z,55.40
2023-03-01T08:27:14.480Z,51.20
2023-03-01T08:29:42.252Z,54.00
2023-03-01T08:32:10.232Z,47.20
2023-03-01T08:34:39.404Z,50.70
2023-03-01T08:37:08.849Z,50.00
2023-03-01T08:39:36.689Z,50.40
2023-03-01T08:42:04.682Z,74.70
2023-03-01T08:44:32.573Z,57.10
2023-03-01T08:47:01.092Z,56.80
2023-03-01T08:49:29.530Z,53.80
2023-03-01T08:51:59.235Z,60.10
2023-03-01T08:54:27.065Z,58.40
2023-03-01T08:56:55.031Z,55.70
2023-03-01T08:59:22.824Z,56.90
2023-03-01T09:01:50.755Z,58.10
2023-03-01T09:04:19.000Z,61.80
2023-03-01T09:06:47.912Z,54.40
2023-03-01T09:09:17.952Z,56.20
2023-03-01T09:11:47.516Z,55.20
2023-03-01T09:14:15.792Z,59.20
2023-03-01T09:16:44.481Z,89.00
2023-03-01T09:19:14.100Z,51.00
2023-03-01T09:21:42.339Z,56.50
2023-03-01T09:24:14.670Z,53.80
2023-03-01T09:26:42.707Z,45.30
2023-03-01T09:29:11.324Z,49.30
2023-03-01T09:31:39.953Z,39.10
2023-03-01T09:34:09.086Z,38.70
2023-03-01T09:36:37.444Z,44.10
2023-03-01T09:39:07.062Z,44.90
2023-03-01T09:41:50.562Z,45.40
2023-03-01T09:44:34.284Z,46.60
2023-03-01T09:47:03.986Z,48.50
2023-03-01T09:49:36.314Z,49.00
2023-03-01T09:52:20.367Z,44.40
2023-03-01T09:54:51.158Z,46.60
2023-03-01T09:57:19.781Z,50.40
2023-03-01T09:59:53.662Z,46.20
2023-03-01T10:02:27.828Z,46.30
2023-03-01T10:05:20.556Z,54.10
2023-03-01T10:08:21.476Z,46.60
2023-03-01T10:10:51.058Z,43.10
2023-03-01T10:13:26.399Z,47.90
2023-03-01T10:16:00.693Z,43.70
2023-03-01T10:18:34.670Z,41.40
2023-03-01T10:21:14.281Z,43.70
2023-03-01T10:23:42.140Z,42.60
2023-03-01T10:26:19.107Z,38.90
2023-03-01T10:29:08.864Z,45.10
2023-03-01T10:31:51.846Z,46.50
2023-03-01T10:34:30.126Z,34.40
2023-03-01T10:37:09.691Z,44.70
2023-03-01T10:39:38.063Z,43.60
2023-03-01T10:42:24.513Z,39.80
2023-03-01T10:44:52.361Z,39.80
2023-03-01T10:47:29.078Z,43.90
2023-03-01T10:50:07.036Z,47.60
2023-03-01T10:52:40.136Z,42.50
2023-03-01T10:55:14.132Z,40.60
2023-03-01T10:57:43.135Z,42.40
2023-03-01T11:00:14.542Z,41.50
2023-03-01T11:02:43.059Z,42.30
2023-03-01T11:05:13.733Z,42.10
2023-03-01T11:08:02.698Z,43.10
2023-03-01T11:10:33.438Z,43.00
2023-03-01T11:13:19.853Z,45.40
2023-03-01T11:16:13.618Z,40.50
2023-03-01T11:18:48.206Z,44.80
2023-03-01T11:21:17.574Z,41.60
2023-03-01T11:23:48.012Z,42.10
2023-03-01T11:26:18.535Z,36.50
2023-03-01T11:28:52.663Z,40.80
2023-03-01T11:31:21.285Z,38.50
2023-03-01T11:34:04.612Z,40.40
2023-03-01T11:36:37.983Z,41.30
2023-03-01T11:39:43.896Z,42.20
2023-03-01T11:42:20.937Z,44.60
2023-03-01T11:44:55.787Z,40.00
2023-03-01T11:47:30.275Z,40.50
2023-03-01T11:50:20.722Z,41.50
2023-03-01T11:53:28.997Z,41.60
2023-03-01T11:56:34.024Z,41.30
2023-03-01T11:59:14.786Z,44.80
2023-03-01T12:02:00.711Z,40.90
2023-03-01T12:04:28.547Z,46.50
2023-03-01T12:07:10.469Z,43.10
2023-03-01T12:10:14.942Z,40.90
2023-03-01T12:12:48.637Z,38.00
2023-03-01T12:18:24.787Z,36.30
2023-03-01T12:21:04.125Z,36.60
2023-03-01T12:23:46.180Z,36.90
2023-03-01T12:26:25.991Z,31.20
2023-03-01T12:29:36.095Z,36.40
2023-03-01T12:32:21.906Z,30.70
2023-03-01T12:35:13.968Z,29.90
2023-03-01T12:38:00.876Z,31.20
2023-03-01T12:40:47.351Z,32.50
2023-03-01T12:43:24.214Z,29.50
2023-03-01T12:46:09.199Z,27.50
2023-03-01T12:48:37.004Z,27.30
2023-03-01T12:51:11.913Z,30.10
2023-03-01T12:53:45.195Z,27.70
2023-03-01T12:56:17.945Z,28.80
2023-03-01T12:59:07.349Z,28.10
2023-03-01T13:02:01.375Z,33.40
2023-03-01T13:05:09.296Z,32.10
2023-03-01T13:07:45.406Z,25.20
2023-03-01T13:10:30.423Z,28.30
2023-03-01T13:12:58.995Z,26.40
2023-03-01T13:15:29.852Z,27.60
2023-03-01T13:18:03.014Z,25.10
2023-03-01T13:20:46.923Z,25.70
2023-03-01T13:23:23.949Z,26.70
2023-03-01T13:26:01.752Z,28.10
2023-03-01T13:28:38.649Z,27.40
2023-03-01T13:31:08.982Z,28.00
2023-03-01T13:33:54.428Z,27.10
2023-03-01T13:36:28.723Z,28.60
2023-03-01T13:38:58.568Z,27.10
2023-03-01T13:41:44.891Z,25.60
2023-03-01T13:44:28.015Z,32.80
2023-03-01T13:47:21.332Z,30.30
2023-03-01T13:49:54.975Z,24.80
2023-03-01T13:52:34.119Z,48.30
2023-03-01T13:55:04.992Z,54.10
2023-03-01T13:57:40.235Z,59.10
2023-03-01T14:00:26.491Z,29.20
2023-03-01T14:03:07.220Z,81.60
2023-03-01T14:05:37.275Z,60.20
2023-03-01T14:08:18.585Z,34.30
2023-03-01T14:10:59.615Z,30.70
2023-03-01T14:13:39.976Z,25.20
2023-03-01T14:16:21.870Z,43.00
2023-03-01T14:19:07.569Z,26.40
2023-03-01T14:21:36.398Z,26.80
2023-03-01T14:24:04.649Z,27.70
2023-03-01T14:26:36.719Z,26.50
2023-03-01T14:29:05.062Z,28.70
2023-03-01T14:31:52.035Z,31.30
2023-03-01T14:34:23.601Z,32.20
2023-03-01T14:36:51.413Z,31.20
2023-03-01T14:39:24.707Z,41.90
2023-03-01T14:41:53.892Z,61.00
2023-03-01T14:44:26.041Z,49.00
2023-03-01T14:46:57.106Z,46.10
2023-03-01T14:49:30.485Z,39.70
2023-03-01T14:52:08.015Z,39.20
2023-03-01T14:54:46.177Z,29.80
2023-03-01T14:57:26.187Z,45.00
2023-03-01T14:59:58.567Z,64.30
2023-03-01T15:02:29.753Z,65.50
2023-03-01T15:05:01.949Z,33.40
2023-03-01T15:07:39.900Z,33.60
2023-03-01T17:52:58.981Z,368.00
2023-03-01T17:55:26.909Z,336.00
2023-03-01T17:57:54.740Z,329.60
2023-03-01T18:00:22.806Z,319.50
2023-03-01T18:02:50.701Z,303.10
2023-03-01T18:05:19.317Z,278.00
2023-03-01T18:07:47.670Z,258.40
2023-03-01T18:10:15.642Z,253.40
2023-03-01T18:12:43.512Z,248.90
2023-03-01T18:15:12.651Z,235.00
2023-03-01T18:17:41.002Z,239.40
2023-03-01T18:20:10.880Z,243.30
2023-03-01T18:22:39.991Z,257.00
2023-03-01T18:25:22.314Z,320.20
2023-03-01T18:27:53.660Z,272.40
2023-03-01T18:30:22.250Z,265.80
2023-03-01T18:32:56.242Z,251.60
2023-03-01T18:35:26.857Z,246.70
2023-03-01T18:37:54.656Z,244.70
2023-03-01T18:40:22.622Z,235.00
2023-03-01T18:42:53.897Z,245.50
2023-03-01T18:45:22.503Z,233.80
2023-03-01T18:47:50.661Z,239.80
2023-03-01T18:50:19.019Z,241.20
2023-03-01T18:52:48.347Z,225.40
2023-03-01T18:55:16.404Z,223.10
2023-03-01T18:57:44.873Z,222.40
2023-03-01T19:00:14.243Z,217.90
2023-03-01T19:02:45.093Z,225.40
2023-03-01T19:05:17.041Z,205.40
2023-03-01T19:07:45.368Z,201.40
2023-03-01T19:10:13.150Z,203.00
2023-03-01T19:12:44.005Z,191.00
2023-03-01T19:15:12.841Z,199.80
2023-03-01T19:17:40.675Z,192.00
2023-03-01T19:20:15.023Z,192.00
2023-03-01T19:22:42.892Z,190.40
2023-03-01T19:25:14.874Z,196.70
2023-03-01T19:28:01.618Z,215.30
2023-03-01T19:30:29.516Z,200.80
2023-03-01T19:32:59.946Z,224.30
2023-03-01T19:35:28.125Z,219.70
2023-03-01T19:37:56.521Z,235.00
2023-03-01T19:43:38.400Z,227.00
2023-03-01T19:46:08.749Z,211.70
2023-03-01T19:48:40.297Z,234.10
2023-03-01T19:51:11.864Z,217.20
2023-03-01T19:53:42.287Z,206.60
2023-03-01T19:56:10.861Z,207.50
2023-03-01T19:58:41.776Z,221.60
2023-03-01T20:01:21.343Z,218.00
2023-03-01T20:03:52.373Z,217.60
2023-03-01T20:06:21.773Z,222.90
2023-03-01T20:08:50.212Z,229.70
2023-03-01T20:11:22.064Z,235.30
2023-03-01T20:13:49.980Z,244.30
2023-03-01T20:16:21.374Z,241.40
2023-03-01T20:18:50.627Z,247.90
2023-03-01T20:21:24.440Z,217.50
2023-03-01T20:24:03.104Z,249.70
2023-03-01T20:26:33.511Z,246.10
2023-03-01T20:29:01.607Z,240.50
2023-03-01T20:31:32.479Z,252.50
2023-03-01T20:34:01.102Z,269.70
2023-03-01T20:36:28.930Z,293.20
2023-03-01T20:38:59.781Z,266.70
2023-03-01T20:41:28.673Z,243.70
2023-03-01T20:43:58.756Z,255.40
2023-03-01T20:46:32.750Z,258.80
2023-03-01T20:49:04.449Z,254.10
2023-03-01T20:51:32.291Z,268.20
2023-03-01T20:54:00.082Z,273.30
2023-03-01T20:56:28.141Z,281.80
2023-03-01T20:58:59.253Z,285.80
2023-03-01T21:01:27.689Z,287.00
2023-03-01T21:03:56.276Z,255.30
2023-03-01T21:06:24.212Z,234.10
2023-03-01T21:08:52.038Z,257.20
2023-03-01T21:11:19.826Z,309.30
2023-03-01T21:13:48.070Z,311.30
2023-03-01T21:16:17.123Z,288.20
2023-03-01T21:18:45.637Z,255.10
2023-03-01T21:21:16.724Z,231.20
2023-03-01T21:23:45.359Z,225.60
2023-03-01T21:26:14.927Z,223.70
2023-03-01T21:28:44.528Z,211.40
2023-03-01T21:31:18.414Z,202.10
2023-03-01T21:33:52.133Z,193.40
2023-03-01T21:38:50.984Z,177.40
2023-03-01T21:41:31.389Z,172.50
2023-03-01T21:44:08.881Z,183.70
2023-03-01T21:46:38.875Z,193.50
2023-03-01T21:49:08.943Z,184.20
2023-03-01T21:51:37.020Z,153.90
2023-03-01T21:54:05.992Z,158.10
2023-03-01T21:56:38.761Z,137.30
2023-03-01T21:59:13.925Z,139.80
2023-03-01T22:01:43.029Z,156.80
2023-03-01T22:04:13.351Z,152.90
2023-03-01T22:06:46.474Z,147.00
2023-03-01T22:09:22.449Z,142.30
2023-03-01T22:12:02.638Z,145.20
2023-03-01T22:14:32.555Z,146.70
2023-03-01T22:17:00.853Z,150.00
2023-03-01T22:19:32.325Z,164.90
2023-03-01T22:22:00.187Z,167.20
2023-03-01T22:24:28.983Z,164.00
2023-03-01T22:26:56.893Z,175.80
2023-03-01T22:29:27.897Z,213.10
2023-03-01T22:31:57.510Z,232.00
2023-03-01T22:34:25.384Z,227.90
2023-03-01T22:36:53.755Z,162.90
2023-03-01T22:39:24.091Z,160.00
2023-03-01T22:41:54.465Z,148.30
2023-03-01T22:44:23.751Z,131.00
2023-03-01T22:46:52.378Z,127.00
2023-03-01T22:49:21.073Z,123.50
2023-03-01T22:51:50.302Z,125.70
2023-03-01T22:54:19.098Z,127.40
2023-03-01T22:56:47.525Z,120.90
2023-03-01T22:59:19.725Z,120.30
2023-03-01T23:01:48.306Z,124.70
2023-03-01T23:04:17.638Z,117.10
2023-03-01T23:06:54.309Z,123.20
2023-03-01T23:09:34.432Z,118.00
2023-03-01T23:12:06.772Z,110.40
2023-03-01T23:14:35.665Z,122.30
2023-03-01T23:17:05.464Z,114.90
2023-03-01T23:19:33.527Z,138.10
2023-03-01T23:22:01.497Z,120.60
2023-03-01T23:24:31.968Z,141.00
2023-03-01T23:27:01.824Z,132.00
2023-03-01T23:29:30.246Z,114.40
2023-03-01T23:31:58.770Z,114.70
2023-03-01T23:34:27.708Z,99.50
2023-03-01T23:36:56.490Z,96.40
2023-03-01T23:39:24.257Z,103.90
2023-03-01T23:41:52.147Z,108.50
2023-03-01T23:44:24.367Z,108.70
2023-03-01T23:46:52.277Z,121.20
2023-03-01T23:49:23.238Z,117.00
2023-03-01T23:51:52.318Z,126.80
2023-03-01T23:54:23.282Z,140.70
2023-03-01T23:56:52.145Z,135.50
2023-03-01T23:59:22.432Z,120.70
